createdAt,value
2018-03-27T00:00:55.999Z,1003.66
2018-03-27T00:01:56.004Z,1003.66
2018-03-27T00:02:56.019Z,1003.65
2018-03-27T00:03:56.030Z,1003.62
2018-03-27T00:04:56.044Z,1003.65
2018-03-27T00:05:56.055Z,1003.61
2018-03-27T00:06:56.069Z,1003.64
2018-03-27T00:07:56.081Z,1003.65
2018-03-27T00:08:56.094Z,1003.63
2018-03-27T00:09:56.108Z,1003.63
2018-03-27T00:10:56.120Z,1003.62
2018-03-27T00:11:56.134Z,1003.62
2018-03-27T00:12:56.144Z,1003.65
2018-03-27T00:13:56.158Z,1003.63
2018-03-27T00:14:56.172Z,1003.63
2018-03-27T00:15:56.183Z,1003.65
2018-03-27T00:16:56.198Z,1003.71
2018-03-27T00:17:56.213Z,1003.6
2018-03-27T00:18:56.221Z,1003.65
2018-03-27T00:19:56.233Z,1003.64
2018-03-27T00:20:56.247Z,1003.67
2018-03-27T00:21:56.259Z,1003.66
2018-03-27T00:22:56.275Z,1003.63
2018-03-27T00:23:56.284Z,1003.67
2018-03-27T00:24:56.297Z,1003.67
2018-03-27T00:25:56.312Z,1003.7
2018-03-27T00:26:56.324Z,1003.73
2018-03-27T00:27:56.335Z,1003.73
2018-03-27T00:28:56.348Z,1003.73
2018-03-27T00:29:56.362Z,1003.73
2018-03-27T00:30:56.374Z,1003.71
2018-03-27T00:31:56.387Z,1003.75
2018-03-27T00:32:56.399Z,1003.71
2018-03-27T00:33:56.413Z,1003.7
2018-03-27T00:34:56.425Z,1003.73
2018-03-27T00:35:56.437Z,1003.72
2018-03-27T00:36:56.467Z,1003.7
2018-03-27T00:37:56.464Z,1003.76
2018-03-27T00:38:56.476Z,1003.72
2018-03-27T00:39:56.489Z,1003.74
2018-03-27T00:40:56.502Z,1003.77
2018-03-27T00:41:56.515Z,1003.75
2018-03-27T00:42:56.530Z,1003.76
2018-03-27T00:43:56.543Z,1003.77
2018-03-27T00:44:56.553Z,1003.81
2018-03-27T00:45:56.564Z,1003.81
2018-03-27T00:46:56.578Z,1003.83
2018-03-27T00:47:56.591Z,1003.85
2018-03-27T00:48:56.603Z,1003.86
2018-03-27T00:49:56.616Z,1003.85
2018-03-27T00:50:56.628Z,1003.87
2018-03-27T00:51:56.645Z,1003.86
2018-03-27T00:52:56.652Z,1003.86
2018-03-27T00:53:56.665Z,1003.86
2018-03-27T00:54:56.679Z,1003.88
2018-03-27T00:55:56.690Z,1003.87
2018-03-27T00:56:56.710Z,1003.92
2018-03-27T00:57:56.717Z,1003.9
2018-03-27T00:58:56.730Z,1003.9
2018-03-27T00:59:56.740Z,1003.88
2018-03-27T01:00:56.754Z,1003.86
2018-03-27T01:01:56.767Z,1003.87
2018-03-27T01:02:56.782Z,1003.83
2018-03-27T01:03:56.794Z,1003.87
2018-03-27T01:04:56.811Z,1003.8
2018-03-27T01:05:56.816Z,1003.85
2018-03-27T01:06:56.828Z,1003.81
2018-03-27T01:07:56.842Z,1003.77
2018-03-27T01:08:56.856Z,1003.76
2018-03-27T01:09:56.870Z,1003.75
2018-03-27T01:10:56.880Z,1003.76
2018-03-27T01:11:56.898Z,1003.75
2018-03-27T01:12:56.904Z,1003.75
2018-03-27T01:13:56.917Z,1003.78
2018-03-27T01:14:56.929Z,1003.8
2018-03-27T01:15:56.943Z,1003.82
2018-03-27T01:16:56.956Z,1003.83
2018-03-27T01:17:56.968Z,1003.83
2018-03-27T01:18:56.980Z,1003.82
2018-03-27T01:19:56.993Z,1003.83
2018-03-27T01:20:57.006Z,1003.85
2018-03-27T01:21:57.017Z,1003.83
2018-03-27T01:22:57.030Z,1003.78
2018-03-27T01:23:57.043Z,1003.79
2018-03-27T01:24:57.055Z,1003.79
2018-03-27T01:25:57.067Z,1003.79
2018-03-27T01:26:57.081Z,1003.79
2018-03-27T01:27:57.093Z,1003.8
2018-03-27T01:28:57.105Z,1003.82
2018-03-27T01:29:57.117Z,1003.82
2018-03-27T01:30:57.129Z,1003.77
2018-03-27T01:31:57.148Z,1003.8
2018-03-27T01:32:57.156Z,1003.77
2018-03-27T01:33:57.166Z,1003.78
2018-03-27T01:34:57.182Z,1003.82
2018-03-27T01:35:57.195Z,1003.78
2018-03-27T01:36:57.204Z,1003.78
2018-03-27T01:37:57.216Z,1003.77
2018-03-27T01:38:57.230Z,1003.75
2018-03-27T01:39:57.241Z,1003.77
2018-03-27T01:40:57.255Z,1003.79
2018-03-27T01:41:57.267Z,1003.77
2018-03-27T01:42:57.282Z,1003.79
2018-03-27T01:43:57.291Z,1003.81
2018-03-27T01:44:57.305Z,1003.74
2018-03-27T01:45:57.315Z,1003.78
2018-03-27T01:46:57.328Z,1003.83
2018-03-27T01:47:57.341Z,1003.82
2018-03-27T01:48:57.353Z,1003.87
2018-03-27T01:49:57.366Z,1003.9
2018-03-27T01:50:57.377Z,1003.93
2018-03-27T01:51:57.390Z,1003.89
2018-03-27T01:52:57.403Z,1003.93
2018-03-27T01:53:57.416Z,1003.91
2018-03-27T01:54:57.428Z,1003.91
2018-03-27T01:55:57.445Z,1003.94
2018-03-27T01:56:57.455Z,1003.94
2018-03-27T01:57:57.466Z,1003.91
2018-03-27T01:58:57.478Z,1003.91
2018-03-27T01:59:57.490Z,1003.9
2018-03-27T02:00:57.501Z,1003.89
2018-03-27T02:01:57.520Z,1003.88
2018-03-27T02:02:57.526Z,1003.89
2018-03-27T02:03:57.539Z,1003.88
2018-03-27T02:04:57.551Z,1003.89
2018-03-27T02:05:57.569Z,1003.89
2018-03-27T02:06:57.727Z,1003.89
2018-03-27T02:07:57.596Z,1003.88
2018-03-27T02:08:57.602Z,1003.85
2018-03-27T02:09:57.614Z,1003.86
2018-03-27T02:10:57.628Z,1003.85
2018-03-27T02:11:57.644Z,1003.9
2018-03-27T02:12:57.652Z,1003.86
2018-03-27T02:13:57.664Z,1003.88
2018-03-27T02:14:57.677Z,1003.88
2018-03-27T02:15:57.733Z,1003.91
2018-03-27T02:16:57.699Z,1003.9
2018-03-27T02:17:57.713Z,1003.92
2018-03-27T02:18:57.725Z,1003.93
2018-03-27T02:19:57.737Z,1003.89
2018-03-27T02:20:57.749Z,1003.86
2018-03-27T02:21:57.760Z,1003.86
2018-03-27T02:22:57.775Z,1003.87
2018-03-27T02:23:57.786Z,1003.85
2018-03-27T02:24:57.797Z,1003.87
2018-03-27T02:25:57.810Z,1003.87
2018-03-27T02:26:57.824Z,1003.85
2018-03-27T02:27:57.835Z,1003.85
2018-03-27T02:28:57.847Z,1003.85
2018-03-27T02:29:57.860Z,1003.84
2018-03-27T02:30:57.871Z,1003.88
2018-03-27T02:31:57.891Z,1003.85
2018-03-27T02:32:57.961Z,1003.88
2018-03-27T02:33:57.909Z,1003.88
2018-03-27T02:34:57.920Z,1003.89
2018-03-27T02:35:57.932Z,1003.92
2018-03-27T02:36:57.946Z,1003.91
2018-03-27T02:37:57.959Z,1003.92
2018-03-27T02:38:57.970Z,1003.96
2018-03-27T02:39:57.981Z,1003.92
2018-03-27T02:40:57.996Z,1003.93
2018-03-27T02:41:58.006Z,1003.93
2018-03-27T02:42:58.020Z,1003.94
2018-03-27T02:43:58.029Z,1003.93
2018-03-27T02:44:58.042Z,1003.98
2018-03-27T02:45:58.054Z,1004.02
2018-03-27T02:46:58.073Z,1004.01
2018-03-27T02:47:58.078Z,1004.01
2018-03-27T02:48:58.097Z,1004.06
2018-03-27T02:49:58.103Z,1004.01
2018-03-27T02:50:58.115Z,1004.01
2018-03-27T02:51:58.140Z,1004.01
2018-03-27T02:52:58.141Z,1003.98
2018-03-27T02:53:58.156Z,1003.99
2018-03-27T02:54:58.165Z,1003.98
2018-03-27T02:55:58.177Z,1003.93
2018-03-27T02:56:58.187Z,1003.94
2018-03-27T02:57:58.201Z,1003.95
2018-03-27T02:58:58.214Z,1003.96
2018-03-27T02:59:58.224Z,1003.99
2018-03-27T03:00:58.236Z,1003.94
2018-03-27T03:01:58.250Z,1003.97
2018-03-27T03:02:58.265Z,1004.02
2018-03-27T03:03:58.273Z,1004.01
2018-03-27T03:04:58.288Z,1004.01
2018-03-27T03:05:58.298Z,1004.04
2018-03-27T03:06:58.315Z,1004.01
2018-03-27T03:07:58.328Z,1004.06
2018-03-27T03:08:58.432Z,1004.04
2018-03-27T03:09:58.401Z,1004.05
2018-03-27T03:10:58.359Z,1004.01
2018-03-27T03:11:58.369Z,1004.07
2018-03-27T03:12:58.395Z,1004.07
2018-03-27T03:13:58.395Z,1004.03
2018-03-27T03:14:58.405Z,1004.02
2018-03-27T03:15:58.418Z,1004.02
2018-03-27T03:16:58.511Z,1004
2018-03-27T03:17:58.697Z,1003.99
2018-03-27T03:18:58.492Z,1004.04
2018-03-27T03:19:58.470Z,1004.02
2018-03-27T03:20:58.508Z,1004.05
2018-03-27T03:21:58.568Z,1004.04
2018-03-27T03:22:58.553Z,1004.03
2018-03-27T03:23:58.576Z,1004.06
2018-03-27T03:24:58.532Z,1004.07
2018-03-27T03:25:58.539Z,1004.07
2018-03-27T03:26:58.552Z,1004.09
2018-03-27T03:27:58.662Z,1004.1
2018-03-27T03:28:58.660Z,1004.12
2018-03-27T03:29:58.665Z,1004.09
2018-03-27T03:30:58.602Z,1004.11
2018-03-27T03:31:58.702Z,1004.14
2018-03-27T03:32:58.626Z,1004.12
2018-03-27T03:33:58.635Z,1004.09
2018-03-27T03:34:58.649Z,1004.15
2018-03-27T03:35:58.725Z,1004.13
2018-03-27T03:36:58.797Z,1004.12
2018-03-27T03:37:58.934Z,1004.11
2018-03-27T03:38:58.786Z,1004.11
2018-03-27T03:39:58.709Z,1004.09
2018-03-27T03:40:58.754Z,1004.08
2018-03-27T03:41:58.836Z,1004.14
2018-03-27T03:42:58.795Z,1004.07
2018-03-27T03:43:58.777Z,1004.1
2018-03-27T03:44:58.769Z,1004.09
2018-03-27T03:45:58.782Z,1004.1
2018-03-27T03:46:58.846Z,1004.07
2018-03-27T03:47:58.811Z,1004.07
2018-03-27T03:48:58.820Z,1004.06
2018-03-27T03:49:58.830Z,1004.07
2018-03-27T03:50:58.843Z,1004.01
2018-03-27T03:51:58.855Z,1004.04
2018-03-27T03:52:58.866Z,1004.05
2018-03-27T03:53:58.879Z,1004.03
2018-03-27T03:54:58.890Z,1004
2018-03-27T03:55:58.904Z,1004.02
2018-03-27T03:56:58.914Z,1004.01
2018-03-27T03:57:58.927Z,1003.99
2018-03-27T03:58:58.939Z,1003.99
2018-03-27T03:59:58.950Z,1003.96
2018-03-27T04:00:58.965Z,1003.94
2018-03-27T04:01:58.977Z,1003.96
2018-03-27T04:02:58.988Z,1003.94
2018-03-27T04:03:59.000Z,1003.91
2018-03-27T04:04:59.015Z,1003.91
2018-03-27T04:05:59.024Z,1003.94
2018-03-27T04:06:59.036Z,1003.91
2018-03-27T04:07:59.067Z,1003.9
2018-03-27T04:08:59.060Z,1003.92
2018-03-27T04:09:59.081Z,1003.9
2018-03-27T04:10:59.084Z,1003.93
2018-03-27T04:11:59.098Z,1003.96
2018-03-27T04:12:59.110Z,1003.94
2018-03-27T04:13:59.120Z,1003.92
2018-03-27T04:14:59.132Z,1003.93
2018-03-27T04:15:59.273Z,1003.95
2018-03-27T04:16:59.158Z,1003.93
2018-03-27T04:17:59.169Z,1003.94
2018-03-27T04:18:59.181Z,1003.89
2018-03-27T04:19:59.194Z,1003.91
2018-03-27T04:20:59.205Z,1003.89
2018-03-27T04:21:59.218Z,1003.91
2018-03-27T04:22:59.232Z,1003.89
2018-03-27T04:23:59.247Z,1003.85
2018-03-27T04:24:59.255Z,1003.85
2018-03-27T04:25:59.265Z,1003.87
2018-03-27T04:26:59.278Z,1003.84
2018-03-27T04:27:59.290Z,1003.81
2018-03-27T04:28:59.302Z,1003.81
2018-03-27T04:29:59.315Z,1003.85
2018-03-27T04:30:59.326Z,1003.86
2018-03-27T04:31:59.351Z,1003.83
2018-03-27T04:32:59.351Z,1003.8
2018-03-27T04:33:59.363Z,1003.83
2018-03-27T04:34:59.377Z,1003.85
2018-03-27T04:35:59.386Z,1003.8
2018-03-27T04:36:59.399Z,1003.84
2018-03-27T04:37:59.412Z,1003.86
2018-03-27T04:38:59.421Z,1003.88
2018-03-27T04:39:59.434Z,1003.89
2018-03-27T04:40:59.447Z,1003.88
2018-03-27T04:41:59.458Z,1003.92
2018-03-27T04:42:59.469Z,1003.9
2018-03-27T04:43:59.482Z,1003.9
2018-03-27T04:44:59.495Z,1003.88
2018-03-27T04:45:59.506Z,1003.89
2018-03-27T04:46:59.519Z,1003.87
2018-03-27T04:47:59.530Z,1003.91
2018-03-27T04:48:59.543Z,1003.85
2018-03-27T04:49:59.557Z,1003.81
2018-03-27T04:50:59.565Z,1003.78
2018-03-27T04:51:59.579Z,1003.79
2018-03-27T04:52:59.592Z,1003.79
2018-03-27T04:53:59.638Z,1003.81
2018-03-27T04:54:59.624Z,1003.83
2018-03-27T04:55:59.629Z,1003.88
2018-03-27T04:56:59.639Z,1003.91
2018-03-27T04:57:59.652Z,1003.9
2018-03-27T04:58:59.664Z,1003.94
2018-03-27T04:59:59.675Z,1003.92
2018-03-27T05:00:59.689Z,1003.93
2018-03-27T05:01:59.700Z,1003.94
2018-03-27T05:02:59.712Z,1003.86
2018-03-27T05:03:59.733Z,1003.88
2018-03-27T05:04:59.735Z,1003.92
2018-03-27T05:05:59.746Z,1003.87
2018-03-27T05:06:59.760Z,1003.88
2018-03-27T05:07:59.777Z,1003.86
2018-03-27T05:08:59.782Z,1003.86
2018-03-27T05:09:59.794Z,1003.91
2018-03-27T05:10:59.808Z,1003.91
2018-03-27T05:11:59.827Z,1003.94
2018-03-27T05:12:59.831Z,1003.9
2018-03-27T05:13:59.843Z,1003.93
2018-03-27T05:14:59.854Z,1003.91
2018-03-27T05:15:59.866Z,1003.95
2018-03-27T05:16:59.879Z,1003.93
2018-03-27T05:17:59.890Z,1003.94
2018-03-27T05:18:59.904Z,1003.91
2018-03-27T05:19:59.916Z,1003.93
2018-03-27T05:20:59.928Z,1003.93
2018-03-27T05:21:59.940Z,1003.91
2018-03-27T05:22:59.952Z,1003.92
2018-03-27T05:23:59.965Z,1003.94
2018-03-27T05:24:59.975Z,1003.96
2018-03-27T05:26:00.002Z,1004.02
2018-03-27T05:26:59.999Z,1004.05
2018-03-27T05:28:00.013Z,1004.05
2018-03-27T05:29:00.026Z,1004.08
2018-03-27T05:30:00.036Z,1004.09
2018-03-27T05:31:00.046Z,1004.08
2018-03-27T05:32:00.059Z,1004.07
2018-03-27T05:33:00.072Z,1004.08
2018-03-27T05:34:00.082Z,1004.06
2018-03-27T05:35:00.094Z,1004.07
2018-03-27T05:36:00.108Z,1004.04
2018-03-27T05:37:00.119Z,1004.06
2018-03-27T05:38:00.136Z,1004.07
2018-03-27T05:39:00.141Z,1004.05
2018-03-27T05:40:00.161Z,1004.09
2018-03-27T05:41:00.164Z,1004.1
2018-03-27T05:42:00.176Z,1004.13
2018-03-27T05:43:00.190Z,1004.13
2018-03-27T05:44:00.202Z,1004.13
2018-03-27T05:45:00.214Z,1004.14
2018-03-27T05:46:00.225Z,1004.12
2018-03-27T05:47:00.238Z,1004.11
2018-03-27T05:48:00.249Z,1004.16
2018-03-27T05:49:00.259Z,1004.21
2018-03-27T05:50:00.274Z,1004.17
2018-03-27T05:51:00.287Z,1004.18
2018-03-27T05:52:00.297Z,1004.17
2018-03-27T05:53:00.309Z,1004.17
2018-03-27T05:54:00.324Z,1004.23
2018-03-27T05:55:00.334Z,1004.23
2018-03-27T05:56:00.360Z,1004.24
2018-03-27T05:57:00.356Z,1004.27
2018-03-27T05:58:00.368Z,1004.28
2018-03-27T05:59:00.380Z,1004.26
2018-03-27T06:00:00.392Z,1004.27
2018-03-27T06:01:00.404Z,1004.24
2018-03-27T06:02:00.424Z,1004.25
2018-03-27T06:03:00.428Z,1004.25
2018-03-27T06:04:00.439Z,1004.26
2018-03-27T06:05:00.455Z,1004.29
2018-03-27T06:06:00.465Z,1004.26
2018-03-27T06:07:00.476Z,1004.23
2018-03-27T06:08:00.496Z,1004.23
2018-03-27T06:09:00.501Z,1004.26
2018-03-27T06:10:00.514Z,1004.26
2018-03-27T06:11:00.524Z,1004.22
2018-03-27T06:12:00.537Z,1004.17
2018-03-27T06:13:00.549Z,1004.22
2018-03-27T06:14:00.560Z,1004.21
2018-03-27T06:15:00.574Z,1004.24
2018-03-27T06:16:00.588Z,1004.22
2018-03-27T06:17:00.599Z,1004.22
2018-03-27T06:18:00.615Z,1004.19
2018-03-27T06:19:00.623Z,1004.19
2018-03-27T06:20:00.640Z,1004.24
2018-03-27T06:21:00.649Z,1004.19
2018-03-27T06:22:00.658Z,1004.18
2018-03-27T06:23:00.671Z,1004.17
2018-03-27T06:24:00.687Z,1004.19
2018-03-27T06:25:00.695Z,1004.18
2018-03-27T06:26:00.714Z,1004.17
2018-03-27T06:27:00.724Z,1004.19
2018-03-27T06:28:00.731Z,1004.16
2018-03-27T06:29:00.743Z,1004.17
2018-03-27T06:30:00.759Z,1004.19
2018-03-27T06:31:00.768Z,1004.15
2018-03-27T06:32:00.787Z,1004.17
2018-03-27T06:33:00.793Z,1004.14
2018-03-27T06:34:00.854Z,1004.18
2018-03-27T06:35:00.818Z,1004.15
2018-03-27T06:36:00.832Z,1004.15
2018-03-27T06:37:00.841Z,1004.13
2018-03-27T06:38:00.855Z,1004.22
2018-03-27T06:39:00.917Z,1004.2
2018-03-27T06:40:00.886Z,1004.25
2018-03-27T06:41:00.890Z,1004.24
2018-03-27T06:42:00.928Z,1004.22
2018-03-27T06:43:00.916Z,1004.25
2018-03-27T06:44:00.927Z,1004.24
2018-03-27T06:45:00.940Z,1004.26
2018-03-27T06:46:00.959Z,1004.27
2018-03-27T06:47:00.964Z,1004.27
2018-03-27T06:48:00.977Z,1004.27
2018-03-27T06:49:01.038Z,1004.26
2018-03-27T06:50:01.004Z,1004.21
2018-03-27T06:51:01.014Z,1004.27
2018-03-27T06:52:01.025Z,1004.22
2018-03-27T06:53:01.038Z,1004.2
2018-03-27T06:54:01.109Z,1004.24
2018-03-27T06:55:01.062Z,1004.23
2018-03-27T06:56:01.077Z,1004.19
2018-03-27T06:57:01.087Z,1004.21
2018-03-27T06:58:01.101Z,1004.24
2018-03-27T06:59:01.164Z,1004.21
2018-03-27T07:00:01.127Z,1004.18
2018-03-27T07:01:01.141Z,1004.21
2018-03-27T07:02:01.199Z,1004.22
2018-03-27T07:03:01.184Z,1004.22
2018-03-27T07:04:01.176Z,1004.23
2018-03-27T07:05:01.185Z,1004.23
2018-03-27T07:06:01.241Z,1004.2
2018-03-27T07:07:01.211Z,1004.23
2018-03-27T07:08:01.240Z,1004.26
2018-03-27T07:09:01.243Z,1004.25
2018-03-27T07:10:01.249Z,1004.23
2018-03-27T07:11:01.265Z,1004.24
2018-03-27T07:12:01.274Z,1004.19
2018-03-27T07:13:01.284Z,1004.24
2018-03-27T07:14:01.297Z,1004.2
2018-03-27T07:15:01.311Z,1004.2
2018-03-27T07:16:01.329Z,1004.17
2018-03-27T07:17:01.339Z,1004.15
2018-03-27T07:18:01.361Z,1004.19
2018-03-27T07:19:01.377Z,1004.19
2018-03-27T07:20:01.374Z,1004.18
2018-03-27T07:21:01.384Z,1004.16
2018-03-27T07:22:01.397Z,1004.16
2018-03-27T07:23:01.413Z,1004.18
2018-03-27T07:24:01.422Z,1004.2
2018-03-27T07:25:01.447Z,1004.2
2018-03-27T07:26:01.447Z,1004.19
2018-03-27T07:27:01.516Z,1004.19
2018-03-27T07:28:01.473Z,1004.19
2018-03-27T07:29:01.484Z,1004.21
2018-03-27T07:30:01.499Z,1004.24
2018-03-27T07:31:01.509Z,1004.21
2018-03-27T07:32:01.522Z,1004.21
2018-03-27T07:33:01.534Z,1004.24
2018-03-27T07:34:01.553Z,1004.2
2018-03-27T07:35:01.564Z,1004.2
2018-03-27T07:36:01.573Z,1004.19
2018-03-27T07:37:01.586Z,1004.18
2018-03-27T07:38:01.604Z,1004.17
2018-03-27T07:39:01.615Z,1004.1
2018-03-27T07:40:01.624Z,1004.1
2018-03-27T07:41:01.644Z,1004.08
2018-03-27T07:42:01.652Z,1004.08
2018-03-27T07:43:01.663Z,1004.06
2018-03-27T07:44:01.677Z,1004.05
2018-03-27T07:45:01.687Z,1004.07
2018-03-27T07:46:01.701Z,1004
2018-03-27T07:47:01.712Z,1003.99
2018-03-27T07:48:01.726Z,1004.02
2018-03-27T07:49:01.736Z,1003.99
2018-03-27T07:50:01.754Z,1004
2018-03-27T07:51:01.769Z,1003.98
2018-03-27T07:52:01.777Z,1003.98
2018-03-27T07:53:01.788Z,1004.04
2018-03-27T07:54:01.803Z,1003.99
2018-03-27T07:55:01.814Z,1004.01
2018-03-27T07:56:01.827Z,1004.01
2018-03-27T07:57:01.840Z,1004.05
2018-03-27T07:58:01.854Z,1004.05
2018-03-27T07:59:01.867Z,1004.04
2018-03-27T08:00:01.880Z,1004.07
2018-03-27T08:01:01.894Z,1004.04
2018-03-27T08:02:01.905Z,1004.04
2018-03-27T08:03:01.919Z,1004.06
2018-03-27T08:04:01.931Z,1004.04
2018-03-27T08:05:01.943Z,1004.02
2018-03-27T08:06:01.958Z,1004.05
2018-03-27T08:07:01.973Z,1004.01
2018-03-27T08:08:01.988Z,1003.97
2018-03-27T08:09:01.994Z,1003.99
2018-03-27T08:10:02.010Z,1003.96
2018-03-27T08:11:02.090Z,1003.97
2018-03-27T08:12:02.039Z,1003.95
2018-03-27T08:13:02.049Z,1003.94
2018-03-27T08:14:02.062Z,1003.93
2018-03-27T08:15:02.073Z,1003.94
2018-03-27T08:16:02.087Z,1003.96
2018-03-27T08:17:02.101Z,1003.96
2018-03-27T08:18:02.114Z,1003.95
2018-03-27T08:19:02.126Z,1004
2018-03-27T08:20:02.140Z,1003.98
2018-03-27T08:21:02.169Z,1004
2018-03-27T08:22:02.166Z,1004
2018-03-27T08:23:02.180Z,1004
2018-03-27T08:24:02.255Z,1003.98
2018-03-27T08:25:02.205Z,1003.95
2018-03-27T08:26:02.218Z,1003.94
2018-03-27T08:27:02.233Z,1003.95
2018-03-27T08:28:02.246Z,1003.94
2018-03-27T08:29:02.260Z,1003.94
2018-03-27T08:30:02.272Z,1003.9
2018-03-27T08:31:02.286Z,1003.91
2018-03-27T08:32:02.300Z,1003.89
2018-03-27T08:33:02.314Z,1003.92
2018-03-27T08:34:02.325Z,1003.97
2018-03-27T08:35:02.339Z,1003.92
2018-03-27T08:36:02.355Z,1003.96
2018-03-27T08:37:02.365Z,1003.92
2018-03-27T08:38:02.384Z,1003.92
2018-03-27T08:39:02.417Z,1003.93
2018-03-27T08:40:02.511Z,1003.93
2018-03-27T08:41:02.420Z,1003.9
2018-03-27T08:42:02.435Z,1003.95
2018-03-27T08:43:02.449Z,1003.96
2018-03-27T08:44:02.463Z,1003.9
2018-03-27T08:45:02.476Z,1003.94
2018-03-27T08:46:02.499Z,1003.89
2018-03-27T08:47:02.501Z,1003.9
2018-03-27T08:48:02.515Z,1003.88
2018-03-27T08:49:02.528Z,1003.91
2018-03-27T08:50:02.593Z,1003.85
2018-03-27T08:51:02.554Z,1003.85
2018-03-27T08:52:02.578Z,1003.83
2018-03-27T08:53:02.583Z,1003.82
2018-03-27T08:54:02.597Z,1003.8
2018-03-27T08:55:02.611Z,1003.83
2018-03-27T08:56:02.689Z,1003.84
2018-03-27T08:57:02.638Z,1003.83
2018-03-27T08:58:02.654Z,1003.85
2018-03-27T08:59:02.666Z,1003.85
2018-03-27T09:00:02.680Z,1003.86
2018-03-27T09:01:02.693Z,1003.84
2018-03-27T09:02:02.708Z,1003.87
2018-03-27T09:03:02.720Z,1003.81
2018-03-27T09:04:02.735Z,1003.85
2018-03-27T09:05:02.749Z,1003.83
2018-03-27T09:06:02.761Z,1003.78
2018-03-27T09:07:02.776Z,1003.77
2018-03-27T09:08:02.792Z,1003.7
2018-03-27T09:09:02.805Z,1003.75
2018-03-27T09:10:02.818Z,1003.7
2018-03-27T09:11:02.834Z,1003.72
2018-03-27T09:12:02.847Z,1003.66
2018-03-27T09:13:02.861Z,1003.62
2018-03-27T09:14:02.874Z,1003.63
2018-03-27T09:15:02.889Z,1003.65
2018-03-27T09:16:02.902Z,1003.65
2018-03-27T09:17:02.918Z,1003.64
2018-03-27T09:18:02.930Z,1003.65
2018-03-27T09:19:02.945Z,1003.69
2018-03-27T09:20:02.960Z,1003.65
2018-03-27T09:21:02.972Z,1003.66
2018-03-27T09:22:02.987Z,1003.64
2018-03-27T09:23:03.004Z,1003.66
2018-03-27T09:24:03.015Z,1003.65
2018-03-27T09:25:03.030Z,1003.7
2018-03-27T09:26:03.046Z,1003.64
2018-03-27T09:27:03.058Z,1003.65
2018-03-27T09:28:03.074Z,1003.63
2018-03-27T09:29:03.085Z,1003.63
2018-03-27T09:30:03.102Z,1003.63
2018-03-27T09:31:03.116Z,1003.61
2018-03-27T09:32:03.129Z,1003.63
2018-03-27T09:33:03.149Z,1003.61
2018-03-27T09:34:03.162Z,1003.59
2018-03-27T09:35:03.174Z,1003.61
2018-03-27T09:36:03.188Z,1003.6
2018-03-27T09:37:03.202Z,1003.56
2018-03-27T09:38:03.217Z,1003.57
2018-03-27T09:39:03.230Z,1003.56
2018-03-27T09:40:03.248Z,1003.53
2018-03-27T09:41:03.260Z,1003.49
2018-03-27T09:42:03.281Z,1003.5
2018-03-27T09:43:03.290Z,1003.44
2018-03-27T09:44:03.306Z,1003.44
2018-03-27T09:45:03.323Z,1003.43
2018-03-27T09:46:03.334Z,1003.46
2018-03-27T09:47:03.350Z,1003.41
2018-03-27T09:48:03.365Z,1003.46
2018-03-27T09:49:03.379Z,1003.43
2018-03-27T09:50:03.394Z,1003.4
2018-03-27T09:51:03.410Z,1003.43
2018-03-27T09:52:03.425Z,1003.4
2018-03-27T09:53:03.439Z,1003.42
2018-03-27T09:54:03.455Z,1003.41
2018-03-27T09:55:03.469Z,1003.4
2018-03-27T09:56:03.485Z,1003.39
2018-03-27T09:57:03.499Z,1003.38
2018-03-27T09:58:03.517Z,1003.4
2018-03-27T09:59:03.531Z,1003.42
2018-03-27T10:00:03.546Z,1003.41
2018-03-27T10:01:03.561Z,1003.45
2018-03-27T10:02:03.576Z,1003.43
2018-03-27T10:03:03.592Z,1003.45
2018-03-27T10:04:03.611Z,1003.43
2018-03-27T10:05:03.623Z,1003.46
2018-03-27T10:06:03.639Z,1003.45
2018-03-27T10:07:03.656Z,1003.41
2018-03-27T10:08:03.672Z,1003.43
2018-03-27T10:09:03.693Z,1003.43
2018-03-27T10:10:03.709Z,1003.38
2018-03-27T10:11:03.721Z,1003.37
2018-03-27T10:12:03.735Z,1003.34
2018-03-27T10:13:03.750Z,1003.38
2018-03-27T10:14:03.767Z,1003.38
2018-03-27T10:15:03.782Z,1003.34
2018-03-27T10:16:03.813Z,1003.34
2018-03-27T10:17:03.816Z,1003.33
2018-03-27T10:18:03.831Z,1003.3
2018-03-27T10:19:03.848Z,1003.3
2018-03-27T10:20:03.864Z,1003.27
2018-03-27T10:21:03.885Z,1003.34
2018-03-27T10:22:03.895Z,1003.28
2018-03-27T10:23:03.920Z,1003.27
2018-03-27T10:24:03.929Z,1003.26
2018-03-27T10:25:03.945Z,1003.27
2018-03-27T10:26:03.962Z,1003.29
2018-03-27T10:27:03.978Z,1003.31
2018-03-27T10:28:03.995Z,1003.3
2018-03-27T10:29:04.011Z,1003.27
2018-03-27T10:30:04.028Z,1003.32
2018-03-27T10:31:04.045Z,1003.29
2018-03-27T10:32:04.060Z,1003.26
2018-03-27T10:33:04.102Z,1003.28
2018-03-27T10:34:04.094Z,1003.24
2018-03-27T10:35:04.114Z,1003.26
2018-03-27T10:36:04.129Z,1003.26
2018-03-27T10:37:04.143Z,1003.22
2018-03-27T10:38:04.161Z,1003.2
2018-03-27T10:39:04.177Z,1003.14
2018-03-27T10:40:04.201Z,1003.12
2018-03-27T10:41:04.211Z,1003.11
2018-03-27T10:42:04.227Z,1003.09
2018-03-27T10:43:04.248Z,1003.12
2018-03-27T10:44:04.263Z,1003.07
2018-03-27T10:45:04.284Z,1003.03
2018-03-27T10:46:04.300Z,1003.01
2018-03-27T10:47:04.313Z,1002.96
2018-03-27T10:48:04.329Z,1003
2018-03-27T10:49:04.353Z,1002.94
2018-03-27T10:50:04.366Z,1002.95
2018-03-27T10:51:04.382Z,1002.94
2018-03-27T10:52:04.399Z,1002.91
2018-03-27T10:53:04.414Z,1002.91
2018-03-27T10:54:04.433Z,1002.93
2018-03-27T10:55:04.450Z,1002.94
2018-03-27T10:56:04.465Z,1002.97
2018-03-27T10:57:04.484Z,1002.97
2018-03-27T10:58:04.503Z,1002.91
2018-03-27T10:59:04.518Z,1002.92
2018-03-27T11:00:04.535Z,1002.92
2018-03-27T11:01:04.553Z,1002.91
2018-03-27T11:02:04.570Z,1002.95
2018-03-27T11:03:04.588Z,1002.93
2018-03-27T11:04:04.604Z,1002.9
2018-03-27T11:05:04.622Z,1002.95
2018-03-27T11:06:04.642Z,1002.94
2018-03-27T11:07:04.660Z,1002.89
2018-03-27T11:08:04.674Z,1002.93
2018-03-27T11:09:04.691Z,1002.96
2018-03-27T11:10:04.716Z,1002.95
2018-03-27T11:11:04.728Z,1002.97
2018-03-27T11:12:04.743Z,1002.97
2018-03-27T11:13:04.763Z,1002.98
2018-03-27T11:14:04.777Z,1002.94
2018-03-27T11:15:04.795Z,1002.96
2018-03-27T11:16:04.814Z,1002.98
2018-03-27T11:17:04.831Z,1002.94
2018-03-27T11:18:04.863Z,1002.93
2018-03-27T11:19:04.927Z,1002.94
2018-03-27T11:20:04.884Z,1002.97
2018-03-27T11:21:04.901Z,1002.94
2018-03-27T11:22:04.920Z,1002.93
2018-03-27T11:23:04.936Z,1002.96
2018-03-27T11:24:04.958Z,1002.95
2018-03-27T11:25:04.973Z,1002.92
2018-03-27T11:26:04.987Z,1002.9
2018-03-27T11:27:05.006Z,1002.87
2018-03-27T11:28:05.027Z,1002.85
2018-03-27T11:29:05.041Z,1002.85
2018-03-27T11:30:05.062Z,1002.88
2018-03-27T11:31:05.078Z,1002.87
2018-03-27T11:32:05.094Z,1002.83
2018-03-27T11:33:05.112Z,1002.85
2018-03-27T11:34:05.129Z,1002.87
2018-03-27T11:35:05.147Z,1002.86
2018-03-27T11:36:05.165Z,1002.87
2018-03-27T11:37:05.181Z,1002.88
2018-03-27T11:38:05.199Z,1002.84
2018-03-27T11:39:05.219Z,1002.84
2018-03-27T11:40:05.236Z,1002.77
2018-03-27T11:41:05.255Z,1002.76
2018-03-27T11:42:05.271Z,1002.72
2018-03-27T11:43:05.293Z,1002.67
2018-03-27T11:44:05.306Z,1002.7
2018-03-27T11:45:05.326Z,1002.68
2018-03-27T11:46:05.345Z,1002.7
2018-03-27T11:47:05.359Z,1002.64
2018-03-27T11:48:05.377Z,1002.63
2018-03-27T11:49:05.398Z,1002.64
2018-03-27T11:50:05.417Z,1002.64
2018-03-27T11:51:05.430Z,1002.59
2018-03-27T11:52:05.448Z,1002.62
2018-03-27T11:53:05.471Z,1002.58
2018-03-27T11:54:05.489Z,1002.56
2018-03-27T11:55:05.502Z,1002.57
2018-03-27T11:56:05.521Z,1002.57
2018-03-27T11:57:05.539Z,1002.56
2018-03-27T11:58:05.555Z,1002.55
2018-03-27T11:59:05.574Z,1002.59
2018-03-27T12:00:05.592Z,1002.54
2018-03-27T12:01:05.610Z,1002.54
2018-03-27T12:02:05.628Z,1002.48
2018-03-27T12:03:05.647Z,1002.45
2018-03-27T12:04:05.666Z,1002.42
2018-03-27T12:05:05.682Z,1002.42
2018-03-27T12:06:05.750Z,1002.45
2018-03-27T12:07:05.718Z,1002.41
2018-03-27T12:08:05.737Z,1002.42
2018-03-27T12:09:05.761Z,1002.4